sensor_id;sensor_type;location;lat;lon;timestamp;pressure;altitude;pressure_sealevel;temperature;humidity
34328;BME280;20588;48.840;10.064;2024-03-23T00:53:55;95772.81;;;4.51;nan
34328;BME280;20588;48.840;10.064;2024-03-23T00:56:21;95770.44;;;4.50;nan
34328;BME280;20588;48.840;10.064;2024-03-23T00:58:47;95773.75;;;4.50;nan
34328;BME280;20588;48.840;10.064;2024-03-23T01:01:13;95766.69;;;4.46;nan
34328;BME280;20588;48.840;10.064;2024-03-23T01:03:39;95770.03;;;4.46;nan
34328;BME280;20588;48.840;10.064;2024-03-23T01:06:05;95762.59;;;4.45;nan
34328;BME280;20588;48.840;10.064;2024-03-23T01:08:31;95757.69;;;4.43;nan
34328;BME280;20588;48.840;10.064;2024-03-23T01:10:58;95754.53;;;4.41;nan
34328;BME280;20588;48.840;10.064;2024-03-23T01:13:24;95756.31;;;4.41;nan
34328;BME280;20588;48.840;10.064;2024-03-23T01:15:51;95760.00;;;4.38;nan
34328;BME280;20588;48.840;10.064;2024-03-23T01:18:18;95759.00;;;4.39;nan
34328;BME280;20588;48.840;10.064;2024-03-23T01:20:44;95747.06;;;4.40;nan
34328;BME280;20588;48.840;10.064;2024-03-23T01:23:10;95741.19;;;4.39;nan
34328;BME280;20588;48.840;10.064;2024-03-23T01:25:36;95744.91;;;4.37;nan
34328;BME280;20588;48.840;10.064;2024-03-23T01:28:02;95743.94;;;4.38;nan
34328;BME280;20588;48.840;10.064;2024-03-23T01:30:28;95743.16;;;4.37;nan
34328;BME280;20588;48.840;10.064;2024-03-23T01:32:55;95742.38;;;4.37;nan
34328;BME280;20588;48.840;10.064;2024-03-23T01:35:21;95733.75;;;4.38;nan
34328;BME280;20588;48.840;10.064;2024-03-23T01:37:47;95730.25;;;4.39;nan
34328;BME280;20588;48.840;10.064;2024-03-23T01:40:13;95729.44;;;4.38;nan
34328;BME280;20588;48.840;10.064;2024-03-23T01:42:40;95722.00;;;4.37;nan
34328;BME280;20588;48.840;10.064;2024-03-23T01:45:08;95712.00;;;4.35;nan
34328;BME280;20588;48.840;10.064;2024-03-23T01:47:35;95705.34;;;4.34;nan
34328;BME280;20588;48.840;10.064;2024-03-23T01:50:02;95704.34;;;4.29;nan
34328;BME280;20588;48.840;10.064;2024-03-23T01:52:28;95706.50;;;4.25;nan
34328;BME280;20588;48.840;10.064;2024-03-23T01:54:54;95709.22;;;4.24;nan
34328;BME280;20588;48.840;10.064;2024-03-23T01:57:20;95701.78;;;4.22;nan
34328;BME280;20588;48.840;10.064;2024-03-23T01:59:47;95693.72;;;4.19;nan
34328;BME280;20588;48.840;10.064;2024-03-23T02:02:13;95682.75;;;4.18;nan
34328;BME280;20588;48.840;10.064;2024-03-23T02:04:39;95682.19;;;4.16;nan
34328;BME280;20588;48.840;10.064;2024-03-23T02:07:07;95687.47;;;4.15;nan
34328;BME280;20588;48.840;10.064;2024-03-23T02:09:33;95680.03;;;4.13;nan
34328;BME280;20588;48.840;10.064;2024-03-23T02:12:01;95678.06;;;4.15;nan
34328;BME280;20588;48.840;10.064;2024-03-23T02:14:27;95665.50;;;4.14;nan
34328;BME280;20588;48.840;10.064;2024-03-23T02:16:53;95656.13;;;4.14;nan
34328;BME280;20588;48.840;10.064;2024-03-23T02:19:19;95652.78;;;4.14;nan
34328;BME280;20588;48.840;10.064;2024-03-23T02:21:45;95646.34;;;4.11;nan
34328;BME280;20588;48.840;10.064;2024-03-23T02:24:12;95641.06;;;4.13;nan
34328;BME280;20588;48.840;10.064;2024-03-23T02:26:39;95642.03;;;4.12;nan
34328;BME280;20588;48.840;10.064;2024-03-23T02:29:05;95637.53;;;4.14;nan
34328;BME280;20588;48.840;10.064;2024-03-23T02:31:31;95637.31;;;4.15;nan
34328;BME280;20588;48.840;10.064;2024-03-23T02:33:57;95626.75;;;4.18;nan
34328;BME280;20588;48.840;10.064;2024-03-23T02:36:23;95629.31;;;4.18;nan
34328;BME280;20588;48.840;10.064;2024-03-23T02:38:49;95622.06;;;4.15;nan
34328;BME280;20588;48.840;10.064;2024-03-23T02:41:15;95618.75;;;4.15;nan
34328;BME280;20588;48.840;10.064;2024-03-23T02:43:49;95617.75;;;4.16;nan
34328;BME280;20588;48.840;10.064;2024-03-23T02:46:15;95611.09;;;4.21;nan
34328;BME280;20588;48.840;10.064;2024-03-23T02:48:41;95609.75;;;4.25;nan
34328;BME280;20588;48.840;10.064;2024-03-23T02:51:07;95607.78;;;4.27;nan
34328;BME280;20588;48.840;10.064;2024-03-23T02:53:34;95594.28;;;4.27;nan
34328;BME280;20588;48.840;10.064;2024-03-23T02:56:00;95598.59;;;4.26;nan
34328;BME280;20588;48.840;10.064;2024-03-23T02:58:27;95595.06;;;4.27;nan
34328;BME280;20588;48.840;10.064;2024-03-23T03:00:53;95577.84;;;4.29;nan
34328;BME280;20588;48.840;10.064;2024-03-23T03:03:19;95585.69;;;4.34;nan
34328;BME280;20588;48.840;10.064;2024-03-23T03:05:45;95581.75;;;4.38;nan
34328;BME280;20588;48.840;10.064;2024-03-23T03:08:11;95591.38;;;4.49;nan
34328;BME280;20588;48.840;10.064;2024-03-23T03:10:37;95580.97;;;4.64;nan
34328;BME280;20588;48.840;10.064;2024-03-23T03:13:03;95580.59;;;4.73;nan
34328;BME280;20588;48.840;10.064;2024-03-23T03:15:29;95577.84;;;4.81;nan
34328;BME280;20588;48.840;10.064;2024-03-23T03:17:55;95571.53;;;5.03;nan
34328;BME280;20588;48.840;10.064;2024-03-23T03:20:21;95662.16;;;5.96;nan
34328;BME280;20588;48.840;10.064;2024-03-23T03:22:49;95568.88;;;5.55;nan
34328;BME280;20588;48.840;10.064;2024-03-23T03:25:15;95569.78;;;5.68;nan
34328;BME280;20588;48.840;10.064;2024-03-23T03:27:41;95567.16;;;5.81;nan
34328;BME280;20588;48.840;10.064;2024-03-23T03:30:07;95578.03;;;6.14;nan
34328;BME280;20588;48.840;10.064;2024-03-23T03:32:34;95550.47;;;6.47;nan
34328;BME280;20588;48.840;10.064;2024-03-23T03:35:00;95556.56;;;6.77;nan
34328;BME280;20588;48.840;10.064;2024-03-23T03:37:26;95558.59;;;7.11;nan
34328;BME280;20588;48.840;10.064;2024-03-23T03:39:52;95555.53;;;7.38;nan
34328;BME280;20588;48.840;10.064;2024-03-23T03:42:18;95542.44;;;7.65;nan
34328;BME280;20588;48.840;10.064;2024-03-23T03:44:44;95546.03;;;7.93;nan
34328;BME280;20588;48.840;10.064;2024-03-23T03:47:10;95541.75;;;8.17;nan
34328;BME280;20588;48.840;10.064;2024-03-23T03:49:36;95536.03;;;8.33;nan
34328;BME280;20588;48.840;10.064;2024-03-23T03:52:02;95538.28;;;8.52;nan
34328;BME280;20588;48.840;10.064;2024-03-23T03:54:29;95530.50;;;8.70;nan
34328;BME280;20588;48.840;10.064;2024-03-23T03:56:55;95535.41;;;8.83;nan
34328;BME280;20588;48.840;10.064;2024-03-23T03:59:21;95539.19;;;8.92;nan
34328;BME280;20588;48.840;10.064;2024-03-23T04:01:47;95530.16;;;9.01;nan
34328;BME280;20588;48.840;10.064;2024-03-23T04:04:13;95532.97;;;9.11;nan
34328;BME280;20588;48.840;10.064;2024-03-23T04:06:39;95526.47;;;9.21;nan
34328;BME280;20588;48.840;10.064;2024-03-23T04:09:06;95523.47;;;9.24;nan
34328;BME280;20588;48.840;10.064;2024-03-23T04:11:32;95518.84;;;9.26;nan
34328;BME280;20588;48.840;10.064;2024-03-23T04:13:58;95520.44;;;9.27;nan
34328;BME280;20588;48.840;10.064;2024-03-23T04:16:34;95524.22;;;9.24;nan
34328;BME280;20588;48.840;10.064;2024-03-23T04:19:00;95519.31;;;9.23;nan
34328;BME280;20588;48.840;10.064;2024-03-23T04:21:27;95513.63;;;9.21;nan
34328;BME280;20588;48.840;10.064;2024-03-23T04:23:53;95499.78;;;9.22;nan
34328;BME280;20588;48.840;10.064;2024-03-23T04:26:19;95501.34;;;9.23;nan
34328;BME280;20588;48.840;10.064;2024-03-23T04:28:45;95498.00;;;9.22;nan
34328;BME280;20588;48.840;10.064;2024-03-23T04:31:11;95493.41;;;9.24;nan
34328;BME280;20588;48.840;10.064;2024-03-23T04:33:37;95483.59;;;9.33;nan
34328;BME280;20588;48.840;10.064;2024-03-23T04:36:03;95478.31;;;9.39;nan
34328;BME280;20588;48.840;10.064;2024-03-23T04:38:29;95469.09;;;9.55;nan
34328;BME280;20588;48.840;10.064;2024-03-23T04:40:57;95463.16;;;9.66;nan
34328;BME280;20588;48.840;10.064;2024-03-23T04:43:23;95443.34;;;9.78;nan
34328;BME280;20588;48.840;10.064;2024-03-23T04:45:49;95429.88;;;9.87;nan
34328;BME280;20588;48.840;10.064;2024-03-23T04:48:15;95430.84;;;9.98;nan
34328;BME280;20588;48.840;10.064;2024-03-23T04:50:42;95428.53;;;10.13;nan
34328;BME280;20588;48.840;10.064;2024-03-23T04:53:08;95420.88;;;10.18;nan
34328;BME280;20588;48.840;10.064;2024-03-23T04:55:34;95412.69;;;10.21;nan
34328;BME280;20588;48.840;10.064;2024-03-23T04:58:00;95405.06;;;10.26;nan
34328;BME280;20588;48.840;10.064;2024-03-23T05:00:26;95410.75;;;10.28;nan
34328;BME280;20588;48.840;10.064;2024-03-23T05:02:52;95404.34;;;10.30;nan
34328;BME280;20588;48.840;10.064;2024-03-23T05:05:19;95396.41;;;10.32;nan
34328;BME280;20588;48.840;10.064;2024-03-23T05:07:46;95395.41;;;10.33;nan
34328;BME280;20588;48.840;10.064;2024-03-23T05:10:12;95393.38;;;10.35;nan
34328;BME280;20588;48.840;10.064;2024-03-23T05:12:39;95383.88;;;10.35;nan
34328;BME280;20588;48.840;10.064;2024-03-23T05:15:06;95389.34;;;10.39;nan
34328;BME280;20588;48.840;10.064;2024-03-23T05:17:33;95390.88;;;10.40;nan
34328;BME280;20588;48.840;10.064;2024-03-23T05:20:00;95386.53;;;10.40;nan
34328;BME280;20588;48.840;10.064;2024-03-23T05:22:27;95377.41;;;10.33;nan
34328;BME280;20588;48.840;10.064;2024-03-23T05:24:53;95383.56;;;10.32;nan
34328;BME280;20588;48.840;10.064;2024-03-23T05:27:19;95386.44;;;10.35;nan
34328;BME280;20588;48.840;10.064;2024-03-23T05:29:45;95427.97;;;10.44;nan
34328;BME280;20588;48.840;10.064;2024-03-23T05:32:13;95441.97;;;10.53;nan
34328;BME280;20588;48.840;10.064;2024-03-23T05:34:39;95432.25;;;10.55;nan
34328;BME280;20588;48.840;10.064;2024-03-23T05:37:05;95446.50;;;10.62;nan
34328;BME280;20588;48.840;10.064;2024-03-23T05:39:31;95446.41;;;10.57;nan
34328;BME280;20588;48.840;10.064;2024-03-23T05:41:57;95453.84;;;10.54;nan
34328;BME280;20588;48.840;10.064;2024-03-23T05:44:23;95483.81;;;10.48;nan
34328;BME280;20588;48.840;10.064;2024-03-23T05:46:49;95513.06;;;10.42;nan
34328;BME280;20588;48.840;10.064;2024-03-23T05:49:16;95527.63;;;10.37;nan
34328;BME280;20588;48.840;10.064;2024-03-23T05:51:43;95533.16;;;10.29;nan
34328;BME280;20588;48.840;10.064;2024-03-23T05:54:10;95536.66;;;10.23;nan
34328;BME280;20588;48.840;10.064;2024-03-23T05:56:36;95528.38;;;10.21;nan
34328;BME280;20588;48.840;10.064;2024-03-23T05:59:02;95515.03;;;10.07;nan
34328;BME280;20588;48.840;10.064;2024-03-23T06:01:29;95518.72;;;10.00;nan
34328;BME280;20588;48.840;10.064;2024-03-23T06:03:58;95517.53;;;9.91;nan
34328;BME280;20588;48.840;10.064;2024-03-23T06:06:24;95520.56;;;9.88;nan
34328;BME280;20588;48.840;10.064;2024-03-23T06:08:50;95511.22;;;9.82;nan
34328;BME280;20588;48.840;10.064;2024-03-23T06:11:16;95525.44;;;9.73;nan
34328;BME280;20588;48.840;10.064;2024-03-23T06:13:42;95531.50;;;9.67;nan
34328;BME280;20588;48.840;10.064;2024-03-23T06:16:08;95524.47;;;9.62;nan
34328;BME280;20588;48.840;10.064;2024-03-23T06:18:36;95528.63;;;9.63;nan
34328;BME280;20588;48.840;10.064;2024-03-23T06:21:02;95523.59;;;9.57;nan
34328;BME280;20588;48.840;10.064;2024-03-23T06:23:28;95534.88;;;9.56;nan
34328;BME280;20588;48.840;10.064;2024-03-23T06:25:54;95564.91;;;9.55;nan
34328;BME280;20588;48.840;10.064;2024-03-23T06:28:20;95579.97;;;9.52;nan
34328;BME280;20588;48.840;10.064;2024-03-23T06:30:47;95590.47;;;9.50;nan
34328;BME280;20588;48.840;10.064;2024-03-23T06:33:13;95589.25;;;9.53;nan
34328;BME280;20588;48.840;10.064;2024-03-23T06:35:40;95588.03;;;9.44;nan
34328;BME280;20588;48.840;10.064;2024-03-23T06:38:06;95586.81;;;9.35;nan
34328;BME280;20588;48.840;10.064;2024-03-23T06:40:32;95578.00;;;9.31;nan
34328;BME280;20588;48.840;10.064;2024-03-23T06:42:58;95586.72;;;9.30;nan
34328;BME280;20588;48.840;10.064;2024-03-23T06:45:24;95595.63;;;9.27;nan
34328;BME280;20588;48.840;10.064;2024-03-23T06:47:50;95594.88;;;9.27;nan
34328;BME280;20588;48.840;10.064;2024-03-23T06:50:18;95591.28;;;9.28;nan
34328;BME280;20588;48.840;10.064;2024-03-23T06:52:44;95600.69;;;9.22;nan
34328;BME280;20588;48.840;10.064;2024-03-23T06:55:10;95615.28;;;9.22;nan
34328;BME280;20588;48.840;10.064;2024-03-23T06:57:36;95604.78;;;9.23;nan
34328;BME280;20588;48.840;10.064;2024-03-23T07:00:02;95609.38;;;9.21;nan
34328;BME280;20588;48.840;10.064;2024-03-23T07:02:28;95612.06;;;9.26;nan
34328;BME280;20588;48.840;10.064;2024-03-23T07:04:54;95623.66;;;9.29;nan
34328;BME280;20588;48.840;10.064;2024-03-23T07:07:21;95627.78;;;9.30;nan
34328;BME280;20588;48.840;10.064;2024-03-23T07:09:47;95625.00;;;9.31;nan
34328;BME280;20588;48.840;10.064;2024-03-23T07:12:13;95612.41;;;9.30;nan
34328;BME280;20588;48.840;10.064;2024-03-23T07:14:39;95609.47;;;9.38;nan
34328;BME280;20588;48.840;10.064;2024-03-23T07:17:05;95619.28;;;9.41;nan
34328;BME280;20588;48.840;10.064;2024-03-23T07:19:31;95619.06;;;9.42;nan
34328;BME280;20588;48.840;10.064;2024-03-23T07:21:57;95621.41;;;9.44;nan
34328;BME280;20588;48.840;10.064;2024-03-23T07:24:24;95617.94;;;9.50;nan
34328;BME280;20588;48.840;10.064;2024-03-23T07:26:50;95623.66;;;9.63;nan
34328;BME280;20588;48.840;10.064;2024-03-23T07:29:17;95621.50;;;9.72;nan
34328;BME280;20588;48.840;10.064;2024-03-23T07:31:43;95615.78;;;9.70;nan
34328;BME280;20588;48.840;10.064;2024-03-23T07:34:09;95599.97;;;9.61;nan
34328;BME280;20588;48.840;10.064;2024-03-23T07:36:35;95613.94;;;9.54;nan
34328;BME280;20588;48.840;10.064;2024-03-23T07:39:01;95619.06;;;9.54;nan
34328;BME280;20588;48.840;10.064;2024-03-23T07:41:27;95624.53;;;9.69;nan
34328;BME280;20588;48.840;10.064;2024-03-23T07:43:54;95643.06;;;9.71;nan
34328;BME280;20588;48.840;10.064;2024-03-23T07:46:21;95646.84;;;9.80;nan
34328;BME280;20588;48.840;10.064;2024-03-23T07:48:47;95646.28;;;9.78;nan
34328;BME280;20588;48.840;10.064;2024-03-23T07:51:22;95655.22;;;9.64;nan
34328;BME280;20588;48.840;10.064;2024-03-23T07:53:49;95652.34;;;9.60;nan
34328;BME280;20588;48.840;10.064;2024-03-23T07:56:16;95669.97;;;9.57;nan
34328;BME280;20588;48.840;10.064;2024-03-23T07:58:43;95673.44;;;9.51;nan
34328;BME280;20588;48.840;10.064;2024-03-23T08:01:11;95686.19;;;9.57;nan
34328;BME280;20588;48.840;10.064;2024-03-23T08:03:39;95703.16;;;9.58;nan
34328;BME280;20588;48.840;10.064;2024-03-23T08:06:09;95707.16;;;9.66;nan
34328;BME280;20588;48.840;10.064;2024-03-23T08:08:36;95706.84;;;9.74;nan
34328;BME280;20588;48.840;10.064;2024-03-23T08:11:02;95721.34;;;9.80;nan
34328;BME280;20588;48.840;10.064;2024-03-23T08:13:29;95717.53;;;9.82;nan
34328;BME280;20588;48.840;10.064;2024-03-23T08:16:03;95724.03;;;9.96;nan
34328;BME280;20588;48.840;10.064;2024-03-23T08:18:30;95721.31;;;10.03;nan
34328;BME280;20588;48.840;10.064;2024-03-23T08:21:06;95732.16;;;10.05;nan
34328;BME280;20588;48.840;10.064;2024-03-23T08:23:33;95739.44;;;10.08;nan
34328;BME280;20588;48.840;10.064;2024-03-23T08:26:00;95748.69;;;9.97;nan
34328;BME280;20588;48.840;10.064;2024-03-23T08:28:27;95749.16;;;9.94;nan
34328;BME280;20588;48.840;10.064;2024-03-23T08:30:54;95753.84;;;9.86;nan
34328;BME280;20588;48.840;10.064;2024-03-23T08:33:20;95755.97;;;9.89;nan
34328;BME280;20588;48.840;10.064;2024-03-23T08:38:20;95753.31;;;10.58;nan
34328;BME280;20588;48.840;10.064;2024-03-23T08:40:46;95745.06;;;10.84;nan
34328;BME280;20588;48.840;10.064;2024-03-23T08:43:12;95755.31;;;11.40;nan
34328;BME280;20588;48.840;10.064;2024-03-23T08:45:38;95768.19;;;11.40;nan
34328;BME280;20588;48.840;10.064;2024-03-23T08:48:05;95783.19;;;11.15;nan
34328;BME280;20588;48.840;10.064;2024-03-23T08:50:31;95795.41;;;10.80;nan
34328;BME280;20588;48.840;10.064;2024-03-23T08:52:57;95807.69;;;10.50;nan
34328;BME280;20588;48.840;10.064;2024-03-23T08:55:23;95820.91;;;10.19;nan
34328;BME280;20588;48.840;10.064;2024-03-23T08:57:49;95835.94;;;9.81;nan
34328;BME280;20588;48.840;10.064;2024-03-23T09:00:15;95847.97;;;9.57;nan
34328;BME280;20588;48.840;10.064;2024-03-23T09:02:41;95854.06;;;9.45;nan
34328;BME280;20588;48.840;10.064;2024-03-23T09:05:07;95857.59;;;9.32;nan
34328;BME280;20588;48.840;10.064;2024-03-23T09:07:33;95864.50;;;9.32;nan
34328;BME280;20588;48.840;10.064;2024-03-23T09:09:59;95875.69;;;9.07;nan
34328;BME280;20588;48.840;10.064;2024-03-23T09:12:26;95880.91;;;9.01;nan
34328;BME280;20588;48.840;10.064;2024-03-23T09:14:52;95895.59;;;8.94;nan
34328;BME280;20588;48.840;10.064;2024-03-23T09:17:19;95907.19;;;8.78;nan
34328;BME280;20588;48.840;10.064;2024-03-23T09:19:45;95917.00;;;8.63;nan
34328;BME280;20588;48.840;10.064;2024-03-23T09:22:11;95917.31;;;8.55;nan
34328;BME280;20588;48.840;10.064;2024-03-23T09:24:38;95904.06;;;8.58;nan
34328;BME280;20588;48.840;10.064;2024-03-23T09:27:04;95896.00;;;8.73;nan
34328;BME280;20588;48.840;10.064;2024-03-23T09:29:30;95908.13;;;9.02;nan
34328;BME280;20588;48.840;10.064;2024-03-23T09:31:56;95901.28;;;9.44;nan
34328;BME280;20588;48.840;10.064;2024-03-23T09:34:22;95882.09;;;9.87;nan
34328;BME280;20588;48.840;10.064;2024-03-23T09:36:51;95895.59;;;10.35;nan
34328;BME280;20588;48.840;10.064;2024-03-23T09:39:18;95910.00;;;10.71;nan
34328;BME280;20588;48.840;10.064;2024-03-23T09:41:45;95893.84;;;11.38;nan
34328;BME280;20588;48.840;10.064;2024-03-23T09:44:11;95908.91;;;11.86;nan
34328;BME280;20588;48.840;10.064;2024-03-23T09:46:38;95915.53;;;11.98;nan
34328;BME280;20588;48.840;10.064;2024-03-23T09:49:08;95932.38;;;11.73;nan
34328;BME280;20588;48.840;10.064;2024-03-23T09:51:38;95945.94;;;11.40;nan
34328;BME280;20588;48.840;10.064;2024-03-23T09:54:04;95939.41;;;10.86;nan
34328;BME280;20588;48.840;10.064;2024-03-23T09:56:30;95937.41;;;10.42;nan
34328;BME280;20588;48.840;10.064;2024-03-23T09:59:06;95952.31;;;9.99;nan
34328;BME280;20588;48.840;10.064;2024-03-23T10:01:32;95946.84;;;9.66;nan
34328;BME280;20588;48.840;10.064;2024-03-23T10:03:58;95941.81;;;9.42;nan
34328;BME280;20588;48.840;10.064;2024-03-23T10:06:25;95930.59;;;9.36;nan
34328;BME280;20588;48.840;10.064;2024-03-23T10:08:52;95946.19;;;9.53;nan
34328;BME280;20588;48.840;10.064;2024-03-23T10:11:20;95944.91;;;9.91;nan
34328;BME280;20588;48.840;10.064;2024-03-23T10:13:47;95955.75;;;9.93;nan
34328;BME280;20588;48.840;10.064;2024-03-23T10:16:21;95948.97;;;9.69;nan
34328;BME280;20588;48.840;10.064;2024-03-23T10:18:49;95949.94;;;9.68;nan
34328;BME280;20588;48.840;10.064;2024-03-23T10:21:16;95950.38;;;10.47;nan
34328;BME280;20588;48.840;10.064;2024-03-23T10:23:44;95949.84;;;11.99;nan
34328;BME280;20588;48.840;10.064;2024-03-23T10:26:21;95954.03;;;13.21;nan
34328;BME280;20588;48.840;10.064;2024-03-23T10:28:59;95959.13;;;13.85;nan
34328;BME280;20588;48.840;10.064;2024-03-23T10:31:31;95939.63;;;14.63;nan
34328;BME280;20588;48.840;10.064;2024-03-23T10:33:58;95934.72;;;14.66;nan
34328;BME280;20588;48.840;10.064;2024-03-23T10:36:25;95926.84;;;14.46;nan
34328;BME280;20588;48.840;10.064;2024-03-23T10:38:54;95922.50;;;15.03;nan
34328;BME280;20588;48.840;10.064;2024-03-23T10:41:21;95911.94;;;16.06;nan
34328;BME280;20588;48.840;10.064;2024-03-23T10:43:48;95916.38;;;16.61;nan
34328;BME280;20588;48.840;10.064;2024-03-23T10:46:14;95922.72;;;17.14;nan
34328;BME280;20588;48.840;10.064;2024-03-23T10:48:41;95917.81;;;17.76;nan
34328;BME280;20588;48.840;10.064;2024-03-23T10:51:10;95920.91;;;18.17;nan
34328;BME280;20588;48.840;10.064;2024-03-23T10:53:37;95915.13;;;18.87;nan
34328;BME280;20588;48.840;10.064;2024-03-23T10:56:05;95920.56;;;19.14;nan
34328;BME280;20588;48.840;10.064;2024-03-23T10:58:39;95904.63;;;19.39;nan
34328;BME280;20588;48.840;10.064;2024-03-23T11:01:06;95898.59;;;19.81;nan
34328;BME280;20588;48.840;10.064;2024-03-23T11:03:39;95915.44;;;20.44;nan
34328;BME280;20588;48.840;10.064;2024-03-23T11:06:06;95903.22;;;20.85;nan
34328;BME280;20588;48.840;10.064;2024-03-23T11:08:36;95914.56;;;20.94;nan
34328;BME280;20588;48.840;10.064;2024-03-23T11:11:21;95913.66;;;20.39;nan
34328;BME280;20588;48.840;10.064;2024-03-23T11:13:50;95923.53;;;19.92;nan
34328;BME280;20588;48.840;10.064;2024-03-23T11:16:24;95916.72;;;19.91;nan
34328;BME280;20588;48.840;10.064;2024-03-23T11:18:51;95913.09;;;19.49;nan
34328;BME280;20588;48.840;10.064;2024-03-23T11:21:52;95924.84;;;19.05;nan
34328;BME280;20588;48.840;10.064;2024-03-23T11:24:22;95926.97;;;18.07;nan
34328;BME280;20588;48.840;10.064;2024-03-23T11:26:49;95925.69;;;17.61;nan
34328;BME280;20588;48.840;10.064;2024-03-23T11:29:16;95928.50;;;17.01;nan
34328;BME280;20588;48.840;10.064;2024-03-23T11:31:51;95923.88;;;16.68;nan
34328;BME280;20588;48.840;10.064;2024-03-23T11:34:18;95936.84;;;16.22;nan
34328;BME280;20588;48.840;10.064;2024-03-23T11:36:45;95932.50;;;15.36;nan
34328;BME280;20588;48.840;10.064;2024-03-23T11:39:16;95964.81;;;14.40;nan
34328;BME280;20588;48.840;10.064;2024-03-23T11:42:00;95988.72;;;13.46;nan
34328;BME280;20588;48.840;10.064;2024-03-23T11:44:27;95989.94;;;12.67;nan
34328;BME280;20588;48.840;10.064;2024-03-23T11:46:53;95990.41;;;12.03;nan
34328;BME280;20588;48.840;10.064;2024-03-23T11:49:25;96015.44;;;11.52;nan
34328;BME280;20588;48.840;10.064;2024-03-23T11:51:53;96007.56;;;11.07;nan
34328;BME280;20588;48.840;10.064;2024-03-23T11:54:26;96014.59;;;10.54;nan
34328;BME280;20588;48.840;10.064;2024-03-23T11:57:04;96024.84;;;10.31;nan
34328;BME280;20588;48.840;10.064;2024-03-23T11:59:38;96034.31;;;10.19;nan
34328;BME280;20588;48.840;10.064;2024-03-23T12:02:12;96051.16;;;9.97;nan
34328;BME280;20588;48.840;10.064;2024-03-23T12:04:42;96039.75;;;9.63;nan
34328;BME280;20588;48.840;10.064;2024-03-23T12:07:21;96053.78;;;9.43;nan
34328;BME280;20588;48.840;10.064;2024-03-23T12:10:03;96045.22;;;9.31;nan
34328;BME280;20588;48.840;10.064;2024-03-23T12:12:30;96026.34;;;9.43;nan
34328;BME280;20588;48.840;10.064;2024-03-23T12:15:04;96020.75;;;9.94;nan
34328;BME280;20588;48.840;10.064;2024-03-23T12:17:32;96030.34;;;10.46;nan
34328;BME280;20588;48.840;10.064;2024-03-23T12:19:58;96025.56;;;10.72;nan
34328;BME280;20588;48.840;10.064;2024-03-23T12:22:25;96021.00;;;11.09;nan
34328;BME280;20588;48.840;10.064;2024-03-23T12:24:52;96009.75;;;11.38;nan
34328;BME280;20588;48.840;10.064;2024-03-23T12:27:18;96013.41;;;11.65;nan
34328;BME280;20588;48.840;10.064;2024-03-23T12:29:44;95996.84;;;11.89;nan
34328;BME280;20588;48.840;10.064;2024-03-23T12:32:13;96009.06;;;12.22;nan
34328;BME280;20588;48.840;10.064;2024-03-23T12:34:39;95991.72;;;12.67;nan
34328;BME280;20588;48.840;10.064;2024-03-23T12:37:05;95994.13;;;12.90;nan
34328;BME280;20588;48.840;10.064;2024-03-23T12:39:32;95983.09;;;13.11;nan
34328;BME280;20588;48.840;10.064;2024-03-23T12:41:58;95983.69;;;13.18;nan
34328;BME280;20588;48.840;10.064;2024-03-23T12:44:24;95991.47;;;13.61;nan
34328;BME280;20588;48.840;10.064;2024-03-23T12:46:50;95995.91;;;13.66;nan
34328;BME280;20588;48.840;10.064;2024-03-23T12:49:16;95992.50;;;14.08;nan
34328;BME280;20588;48.840;10.064;2024-03-23T12:51:54;95992.75;;;14.12;nan
34328;BME280;20588;48.840;10.064;2024-03-23T12:54:25;96000.63;;;13.95;nan
34328;BME280;20588;48.840;10.064;2024-03-23T12:56:51;96000.59;;;13.69;nan
34328;BME280;20588;48.840;10.064;2024-03-23T12:59:17;95985.88;;;13.48;nan
34328;BME280;20588;48.840;10.064;2024-03-23T13:01:44;95999.44;;;13.38;nan
34328;BME280;20588;48.840;10.064;2024-03-23T13:04:10;96005.91;;;13.36;nan
34328;BME280;20588;48.840;10.064;2024-03-23T13:06:37;96004.50;;;13.12;nan
34328;BME280;20588;48.840;10.064;2024-03-23T13:09:03;95997.31;;;12.97;nan
34328;BME280;20588;48.840;10.064;2024-03-23T13:11:32;96008.00;;;13.01;nan
34328;BME280;20588;48.840;10.064;2024-03-23T13:13:58;95998.66;;;13.00;nan
34328;BME280;20588;48.840;10.064;2024-03-23T13:16:24;95995.59;;;13.03;nan
34328;BME280;20588;48.840;10.064;2024-03-23T13:18:50;95982.59;;;13.14;nan
34328;BME280;20588;48.840;10.064;2024-03-23T13:21:17;95985.94;;;13.31;nan
34328;BME280;20588;48.840;10.064;2024-03-23T13:23:46;95980.22;;;13.51;nan
34328;BME280;20588;48.840;10.064;2024-03-23T13:26:13;95978.84;;;13.43;nan
34328;BME280;20588;48.840;10.064;2024-03-23T13:28:40;95976.72;;;13.62;nan
34328;BME280;20588;48.840;10.064;2024-03-23T13:31:07;95969.69;;;13.57;nan
34328;BME280;20588;48.840;10.064;2024-03-23T13:33:34;95969.81;;;13.67;nan
34328;BME280;20588;48.840;10.064;2024-03-23T13:36:00;95966.31;;;14.05;nan
34328;BME280;20588;48.840;10.064;2024-03-23T13:38:27;95957.28;;;14.07;nan
34328;BME280;20588;48.840;10.064;2024-03-23T13:41:00;95954.34;;;13.99;nan
34328;BME280;20588;48.840;10.064;2024-03-23T13:43:28;95935.63;;;13.87;nan
34328;BME280;20588;48.840;10.064;2024-03-23T13:45:55;95932.28;;;13.65;nan
34328;BME280;20588;48.840;10.064;2024-03-23T13:48:23;95934.00;;;13.33;nan
34328;BME280;20588;48.840;10.064;2024-03-23T13:51:03;95934.41;;;13.03;nan
34328;BME280;20588;48.840;10.064;2024-03-23T13:53:30;95922.69;;;12.79;nan
34328;BME280;20588;48.840;10.064;2024-03-23T13:55:58;95924.88;;;12.87;nan
34328;BME280;20588;48.840;10.064;2024-03-23T13:58:24;95921.72;;;13.02;nan
34328;BME280;20588;48.840;10.064;2024-03-23T14:00:55;95922.03;;;13.05;nan
34328;BME280;20588;48.840;10.064;2024-03-23T14:03:23;95922.09;;;12.94;nan
34328;BME280;20588;48.840;10.064;2024-03-23T14:05:49;95906.56;;;12.89;nan
34328;BME280;20588;48.840;10.064;2024-03-23T14:08:15;95902.28;;;12.77;nan
34328;BME280;20588;48.840;10.064;2024-03-23T14:10:42;95891.44;;;12.59;nan
34328;BME280;20588;48.840;10.064;2024-03-23T14:13:09;95887.63;;;12.61;nan